sensor_id;sensor_type;location;lat;lon;timestamp;pressure;altitude;pressure_sealevel;temperature;humidity
48352;BME280;34163;49.314;6.752;2023-09-08T05:15:35;99819.88;;;4.91;100.00
48352;BME280;34163;49.314;6.752;2023-09-08T05:18:00;99816.31;;;4.93;100.00
48352;BME280;34163;49.314;6.752;2023-09-08T05:20:25;99818.06;;;4.94;100.00
48352;BME280;34163;49.314;6.752;2023-09-08T05:22:51;99819.88;;;4.91;100.00
48352;BME280;34163;49.314;6.752;2023-09-08T05:25:16;99824.13;;;4.97;100.00
48352;BME280;34163;49.314;6.752;2023-09-08T05:27:41;99828.63;;;4.90;100.00
48352;BME280;34163;49.314;6.752;2023-09-08T05:30:06;99825.97;;;4.92;100.00
48352;BME280;34163;49.314;6.752;2023-09-08T05:32:32;99830.19;;;4.99;100.00
48352;BME280;34163;49.314;6.752;2023-09-08T05:34:57;99834.38;;;5.09;100.00
48352;BME280;34163;49.314;6.752;2023-09-08T05:37:22;99837.91;;;5.08;100.00
48352;BME280;34163;49.314;6.752;2023-09-08T05:39:48;99839.56;;;5.14;100.00
48352;BME280;34163;49.314;6.752;2023-09-08T05:42:13;99835.31;;;5.07;100.00
48352;BME280;34163;49.314;6.752;2023-09-08T05:44:38;99843.28;;;5.02;100.00
48352;BME280;34163;49.314;6.752;2023-09-08T05:47:04;99841.56;;;5.01;100.00
48352;BME280;34163;49.314;6.752;2023-09-08T05:49:30;99842.34;;;5.05;100.00
48352;BME280;34163;49.314;6.752;2023-09-08T05:51:55;99838.13;;;4.96;100.00
48352;BME280;34163;49.314;6.752;2023-09-08T05:54:20;99843.38;;;4.96;100.00
48352;BME280;34163;49.314;6.752;2023-09-08T05:56:45;99842.28;;;5.08;100.00
48352;BME280;34163;49.314;6.752;2023-09-08T05:59:11;99846.72;;;5.06;100.00
48352;BME280;34163;49.314;6.752;2023-09-08T06:01:36;99848.50;;;5.04;100.00
48352;BME280;34163;49.314;6.752;2023-09-08T06:04:02;99848.56;;;4.99;100.00
48352;BME280;34163;49.314;6.752;2023-09-08T06:06:27;99844.94;;;5.08;100.00
48352;BME280;34163;49.314;6.752;2023-09-08T06:08:53;99842.41;;;5.02;100.00
48352;BME280;34163;49.314;6.752;2023-09-08T06:11:18;99847.78;;;4.96;100.00
48352;BME280;34163;49.314;6.752;2023-09-08T06:13:44;99847.84;;;4.93;100.00
48352;BME280;34163;49.314;6.752;2023-09-08T06:16:09;99843.31;;;4.99;100.00
48352;BME280;34163;49.314;6.752;2023-09-08T06:18:34;99845.91;;;5.01;100.00
48352;BME280;34163;49.314;6.752;2023-09-08T06:21:05;99842.38;;;5.03;100.00
48352;BME280;34163;49.314;6.752;2023-09-08T06:23:30;99850.16;;;5.09;100.00
48352;BME280;34163;49.314;6.752;2023-09-08T06:25:58;99847.50;;;5.11;100.00
48352;BME280;34163;49.314;6.752;2023-09-08T06:28:26;99852.69;;;5.14;100.00
48352;BME280;34163;49.314;6.752;2023-09-08T06:30:52;99848.19;;;5.19;100.00
48352;BME280;34163;49.314;6.752;2023-09-08T06:33:17;99848.22;;;5.18;100.00
48352;BME280;34163;49.314;6.752;2023-09-08T06:35:43;99850.03;;;5.16;100.00
48352;BME280;34163;49.314;6.752;2023-09-08T06:38:08;99852.53;;;5.22;100.00
48352;BME280;34163;49.314;6.752;2023-09-08T06:40:33;99847.31;;;5.20;100.00
48352;BME280;34163;49.314;6.752;2023-09-08T06:42:59;99854.34;;;5.18;100.00
48352;BME280;34163;49.314;6.752;2023-09-08T06:45:24;99850.06;;;5.14;100.00
48352;BME280;34163;49.314;6.752;2023-09-08T06:47:49;99854.47;;;5.12;100.00
48352;BME280;34163;49.314;6.752;2023-09-08T06:50:17;99847.44;;;5.14;100.00
48352;BME280;34163;49.314;6.752;2023-09-08T06:52:42;99844.78;;;5.16;100.00
48352;BME280;34163;49.314;6.752;2023-09-08T06:55:07;99848.31;;;5.13;100.00
48352;BME280;34163;49.314;6.752;2023-09-08T06:57:34;99842.91;;;5.21;100.00
48352;BME280;34163;49.314;6.752;2023-09-08T06:59:59;99843.91;;;5.15;100.00
48352;BME280;34163;49.314;6.752;2023-09-08T07:02:24;99848.28;;;5.15;100.00
48352;BME280;34163;49.314;6.752;2023-09-08T07:04:50;99845.59;;;5.18;100.00
48352;BME280;34163;49.314;6.752;2023-09-08T07:07:16;99856.09;;;5.19;100.00
48352;BME280;34163;49.314;6.752;2023-09-08T07:09:42;99852.75;;;5.11;100.00
48352;BME280;34163;49.314;6.752;2023-09-08T07:12:07;99855.91;;;5.28;100.00
48352;BME280;34163;49.314;6.752;2023-09-08T07:14:33;99856.84;;;5.24;100.00
48352;BME280;34163;49.314;6.752;2023-09-08T07:16:58;99856.25;;;5.10;100.00
48352;BME280;34163;49.314;6.752;2023-09-08T07:19:23;99858.13;;;5.03;100.00
48352;BME280;34163;49.314;6.752;2023-09-08T08:03:10;99847.69;;;5.00;100.00
48352;BME280;34163;49.314;6.752;2023-09-08T08:05:36;99847.56;;;5.08;100.00
48352;BME280;34163;49.314;6.752;2023-09-08T08:08:01;99845.75;;;5.10;100.00
48352;BME280;34163;49.314;6.752;2023-09-08T08:10:26;99844.94;;;5.06;100.00
48352;BME280;34163;49.314;6.752;2023-09-08T08:12:52;99849.16;;;5.15;100.00
48352;BME280;34163;49.314;6.752;2023-09-08T08:15:18;99853.66;;;5.08;100.00
48352;BME280;34163;49.314;6.752;2023-09-08T08:17:44;99852.75;;;5.11;100.00
48352;BME280;34163;49.314;6.752;2023-09-08T08:20:10;99847.53;;;5.09;100.00
48352;BME280;34163;49.314;6.752;2023-09-08T08:22:45;99844.94;;;5.08;100.00
48352;BME280;34163;49.314;6.752;2023-09-08T08:25:11;99843.06;;;5.13;100.00
48352;BME280;34163;49.314;6.752;2023-09-08T08:27:37;99843.91;;;5.14;100.00
48352;BME280;34163;49.314;6.752;2023-09-08T08:30:02;99845.53;;;5.21;100.00
48352;BME280;34163;49.314;6.752;2023-09-08T08:32:28;99841.09;;;5.24;100.00
48352;BME280;34163;49.314;6.752;2023-09-08T08:34:54;99849.88;;;5.23;100.00
48352;BME280;34163;49.314;6.752;2023-09-08T08:37:19;99847.28;;;5.22;100.00
48352;BME280;34163;49.314;6.752;2023-09-08T08:39:44;99845.56;;;5.19;100.00
48352;BME280;34163;49.314;6.752;2023-09-08T08:42:10;99847.44;;;5.14;100.00
48352;BME280;34163;49.314;6.752;2023-09-08T08:44:36;99850.84;;;5.18;100.00
48352;BME280;34163;49.314;6.752;2023-09-08T08:47:02;99842.03;;;5.22;100.00
48352;BME280;34163;49.314;6.752;2023-09-08T08:49:28;99848.06;;;5.27;100.00
48352;BME280;34163;49.314;6.752;2023-09-08T08:51:55;99842.81;;;5.27;100.00
48352;BME280;34163;49.314;6.752;2023-09-08T08:54:22;99843.78;;;5.21;100.00
48352;BME280;34163;49.314;6.752;2023-09-08T08:56:48;99836.75;;;5.23;100.00
48352;BME280;34163;49.314;6.752;2023-09-08T08:59:16;99829.63;;;5.28;100.00
48352;BME280;34163;49.314;6.752;2023-09-08T09:01:43;99836.69;;;5.26;100.00
48352;BME280;34163;49.314;6.752;2023-09-08T09:04:08;99841.97;;;5.25;100.00
48352;BME280;34163;49.314;6.752;2023-09-08T09:06:34;99843.78;;;5.21;100.00
48352;BME280;34163;49.314;6.752;2023-09-08T09:09:00;99840.19;;;5.25;100.00
48352;BME280;34163;49.314;6.752;2023-09-08T09:11:26;99841.94;;;5.26;100.00
48352;BME280;34163;49.314;6.752;2023-09-08T09:13:51;99833.03;;;5.34;100.00
48352;BME280;34163;49.314;6.752;2023-09-08T09:16:16;99842.72;;;5.32;100.00
48352;BME280;34163;49.314;6.752;2023-09-08T09:18:55;99836.50;;;5.34;100.00
48352;BME280;34163;49.314;6.752;2023-09-08T09:21:21;99844.44;;;5.31;100.00
48352;BME280;34163;49.314;6.752;2023-09-08T09:23:46;99833.97;;;5.30;100.00
48352;BME280;34163;49.314;6.752;2023-09-08T09:26:25;99826.84;;;5.36;100.00
48352;BME280;34163;49.314;6.752;2023-09-08T09:28:56;99830.34;;;5.37;100.00
48352;BME280;34163;49.314;6.752;2023-09-08T09:31:24;99830.22;;;5.43;100.00
48352;BME280;34163;49.314;6.752;2023-09-08T09:34:03;99833.84;;;5.36;100.00
48352;BME280;34163;49.314;6.752;2023-09-08T09:36:29;99830.31;;;5.38;100.00
48352;BME280;34163;49.314;6.752;2023-09-08T09:38:57;99821.69;;;5.32;100.00
48352;BME280;34163;49.314;6.752;2023-09-08T09:41:23;99819.13;;;5.28;100.00
48352;BME280;34163;49.314;6.752;2023-09-08T09:43:48;99821.69;;;5.32;100.00
48352;BME280;34163;49.314;6.752;2023-09-08T09:46:14;99812.84;;;5.34;100.00
48352;BME280;34163;49.314;6.752;2023-09-08T09:48:40;99815.56;;;5.30;100.00
48352;BME280;34163;49.314;6.752;2023-09-08T09:51:15;99817.31;;;5.31;100.00
48352;BME280;34163;49.314;6.752;2023-09-08T09:53:44;99818.16;;;5.33;100.00
48352;BME280;34163;49.314;6.752;2023-09-08T09:58:45;99822.44;;;5.37;100.00
48352;BME280;34163;49.314;6.752;2023-09-08T10:01:10;99815.53;;;5.33;100.00
48352;BME280;34163;49.314;6.752;2023-09-08T10:03:37;99822.38;;;5.40;100.00
48352;BME280;34163;49.314;6.752;2023-09-08T10:06:03;99817.06;;;5.43;100.00
48352;BME280;34163;49.314;6.752;2023-09-08T10:08:28;99825.69;;;5.50;100.00
48352;BME280;34163;49.314;6.752;2023-09-08T10:10:57;99816.28;;;5.39;100.00
48352;BME280;34163;49.314;6.752;2023-09-08T10:13:28;99817.13;;;5.40;100.00
48352;BME280;34163;49.314;6.752;2023-09-08T10:15:58;99814.44;;;5.43;100.00
48352;BME280;34163;49.314;6.752;2023-09-08T10:18:23;99812.66;;;5.43;100.00
48352;BME280;34163;49.314;6.752;2023-09-08T10:20:51;99810.91;;;5.44;100.00
48352;BME280;34163;49.314;6.752;2023-09-08T10:23:28;99815.25;;;5.45;100.00
48352;BME280;34163;49.314;6.752;2023-09-08T10:25:57;99809.69;;;5.60;100.00
48352;BME280;34163;49.314;6.752;2023-09-08T10:28:25;99799.31;;;5.54;100.00
48352;BME280;34163;49.314;6.752;2023-09-08T10:30:50;99802.94;;;5.47;100.00
48352;BME280;34163;49.314;6.752;2023-09-08T10:33:16;99801.09;;;5.52;100.00
48352;BME280;34163;49.314;6.752;2023-09-08T10:35:50;99807.28;;;5.50;100.00
48352;BME280;34163;49.314;6.752;2023-09-08T10:38:23;99795.84;;;5.52;100.00
48352;BME280;34163;49.314;6.752;2023-09-08T10:41:36;99802.81;;;5.53;100.00
48352;BME280;34163;49.314;6.752;2023-09-08T10:43:37;99795.84;;;5.52;100.00
48352;BME280;34163;49.314;6.752;2023-09-08T10:46:07;99802.84;;;5.52;100.00
48352;BME280;34163;49.314;6.752;2023-09-08T10:48:42;99795.78;;;5.55;100.00
48352;BME280;34163;49.314;6.752;2023-09-08T10:51:12;99804.56;;;5.54;100.00
48352;BME280;34163;49.314;6.752;2023-09-08T10:53:38;99799.16;;;5.60;100.00
48352;BME280;34163;49.314;6.752;2023-09-08T10:56:04;99791.41;;;5.54;100.00
48352;BME280;34163;49.314;6.752;2023-09-08T10:58:33;99794.69;;;5.64;100.00
48352;BME280;34163;49.314;6.752;2023-09-08T11:01:01;99800.16;;;5.55;100.00
48352;BME280;34163;49.314;6.752;2023-09-08T11:03:27;99788.72;;;5.57;100.00
48352;BME280;34163;49.314;6.752;2023-09-08T11:05:53;99791.38;;;5.56;100.00
48352;BME280;34163;49.314;6.752;2023-09-08T11:08:18;99791.41;;;5.54;100.00
48352;BME280;34163;49.314;6.752;2023-09-08T11:10:44;99793.97;;;5.57;100.00
48352;BME280;34163;49.314;6.752;2023-09-08T11:13:09;99786.09;;;5.57;100.00
48352;BME280;34163;49.314;6.752;2023-09-08T11:15:35;99790.69;;;5.48;100.00
48352;BME280;34163;49.314;6.752;2023-09-08T11:18:04;99785.38;;;5.51;100.00
48352;BME280;34163;49.314;6.752;2023-09-08T11:20:29;99788.84;;;5.51;100.00
48352;BME280;34163;49.314;6.752;2023-09-08T11:22:54;99784.28;;;5.59;100.00
48352;BME280;34163;49.314;6.752;2023-09-08T11:25:20;99788.84;;;5.51;100.00
48352;BME280;34163;49.314;6.752;2023-09-08T11:27:45;99781.69;;;5.58;100.00
48352;BME280;34163;49.314;6.752;2023-09-08T11:30:11;99777.34;;;5.57;100.00
48352;BME280;34163;49.314;6.752;2023-09-08T11:32:37;99780.13;;;5.51;100.00
48352;BME280;34163;49.314;6.752;2023-09-08T11:35:04;99781.63;;;5.61;100.00
48352;BME280;34163;49.314;6.752;2023-09-08T11:37:29;99778.16;;;5.60;100.00
48352;BME280;34163;49.314;6.752;2023-09-08T11:39:54;99776.34;;;5.62;100.00
48352;BME280;34163;49.314;6.752;2023-09-08T11:42:20;99784.22;;;5.62;100.00
48352;BME280;34163;49.314;6.752;2023-09-08T11:44:46;99778.22;;;5.57;100.00
48352;BME280;34163;49.314;6.752;2023-09-08T11:47:12;99780.53;;;5.71;100.00
48352;BME280;34163;49.314;6.752;2023-09-08T11:49:38;99775.19;;;5.74;100.00
48352;BME280;34163;49.314;6.752;2023-09-08T11:52:03;99770.88;;;5.72;100.00
48352;BME280;34163;49.314;6.752;2023-09-08T11:54:32;99780.56;;;5.70;100.00
48352;BME280;34163;49.314;6.752;2023-09-08T11:57:02;99779.50;;;5.77;100.00
48352;BME280;34163;49.314;6.752;2023-09-08T11:59:28;99770.66;;;5.81;100.00
48352;BME280;34163;49.314;6.752;2023-09-08T12:01:55;99770.81;;;5.75;100.00
48352;BME280;34163;49.314;6.752;2023-09-08T12:04:21;99778.56;;;5.81;100.00
48352;BME280;34163;49.314;6.752;2023-09-08T12:06:49;99774.19;;;5.80;100.00
48352;BME280;34163;49.314;6.752;2023-09-08T12:09:16;99770.69;;;5.79;100.00
48352;BME280;34163;49.314;6.752;2023-09-08T12:11:41;99773.22;;;5.84;100.00
48352;BME280;34163;49.314;6.752;2023-09-08T12:14:08;99775.91;;;5.81;100.00
48352;BME280;34163;49.314;6.752;2023-09-08T12:16:34;99769.91;;;5.74;100.00
48352;BME280;34163;49.314;6.752;2023-09-08T12:19:00;99766.41;;;5.75;100.00
48352;BME280;34163;49.314;6.752;2023-09-08T12:23:51;99761.28;;;5.69;100.00
48352;BME280;34163;49.314;6.752;2023-09-08T12:26:19;99767.38;;;5.71;100.00
48352;BME280;34163;49.314;6.752;2023-09-08T12:28:45;99763.88;;;5.71;100.00
48352;BME280;34163;49.314;6.752;2023-09-08T12:31:12;99759.50;;;5.71;100.00
48352;BME280;34163;49.314;6.752;2023-09-08T12:33:37;99758.50;;;5.75;100.00
48352;BME280;34163;49.314;6.752;2023-09-08T12:36:16;99753.22;;;5.77;100.00
48352;BME280;34163;49.314;6.752;2023-09-08T12:38:48;99750.47;;;5.81;100.00
48352;BME280;34163;49.314;6.752;2023-09-08T12:41:14;99749.69;;;5.78;100.00
48352;BME280;34163;49.314;6.752;2023-09-08T12:43:39;99745.25;;;5.80;100.00
48352;BME280;34163;49.314;6.752;2023-09-08T12:46:04;99747.19;;;5.73;100.00
48352;BME280;34163;49.314;6.752;2023-09-08T12:48:29;99738.44;;;5.73;100.00
48352;BME280;34163;49.314;6.752;2023-09-08T12:50:55;99738.56;;;5.67;100.00
48352;BME280;34163;49.314;6.752;2023-09-08T12:53:20;99744.66;;;5.69;100.00
48352;BME280;34163;49.314;6.752;2023-09-08T12:55:48;99749.78;;;5.75;100.00
48352;BME280;34163;49.314;6.752;2023-09-08T12:58:13;99741.50;;;5.90;100.00
48352;BME280;34163;49.314;6.752;2023-09-08T13:00:39;99735.72;;;5.74;100.00
48352;BME280;34163;49.314;6.752;2023-09-08T13:03:04;99737.41;;;5.78;100.00
48352;BME280;34163;49.314;6.752;2023-09-08T13:05:29;99731.50;;;5.69;100.00
48352;BME280;34163;49.314;6.752;2023-09-08T13:07:55;99728.72;;;5.75;100.00
48352;BME280;34163;49.314;6.752;2023-09-08T13:10:21;99728.09;;;5.65;100.00
48352;BME280;34163;49.314;6.752;2023-09-08T13:12:46;99724.50;;;5.68;100.00
48352;BME280;34163;49.314;6.752;2023-09-08T13:15:13;99724.25;;;5.78;100.00
48352;BME280;34163;49.314;6.752;2023-09-08T13:17:39;99722.88;;;5.63;100.00
48352;BME280;34163;49.314;6.752;2023-09-08T13:20:04;99724.41;;;5.72;100.00
48352;BME280;34163;49.314;6.752;2023-09-08T13:22:29;99715.59;;;5.75;100.00
48352;BME280;34163;49.314;6.752;2023-09-08T13:24:55;99719.09;;;5.74;100.00
48352;BME280;34163;49.314;6.752;2023-09-08T13:27:20;99714.53;;;5.82;100.00
48352;BME280;34163;49.314;6.752;2023-09-08T13:29:45;99716.25;;;5.83;100.00
48352;BME280;34163;49.314;6.752;2023-09-08T13:32:11;99708.47;;;5.78;100.00
48352;BME280;34163;49.314;6.752;2023-09-08T13:34:36;99717.81;;;5.90;100.00
48352;BME280;34163;49.314;6.752;2023-09-08T13:37:03;99708.16;;;5.92;100.00
48352;BME280;34163;49.314;6.752;2023-09-08T13:39:28;99710.09;;;5.84;100.00
48352;BME280;34163;49.314;6.752;2023-09-08T13:41:54;99702.78;;;5.98;100.00
48352;BME280;34163;49.314;6.752;2023-09-08T13:44:20;99700.22;;;5.94;100.00
48352;BME280;34163;49.314;6.752;2023-09-08T13:46:46;99703.03;;;5.86;100.00
48352;BME280;34163;49.314;6.752;2023-09-08T13:49:11;99689.97;;;5.83;100.00
48352;BME280;34163;49.314;6.752;2023-09-08T13:51:37;99695.94;;;5.90;100.00
48352;BME280;34163;49.314;6.752;2023-09-08T13:54:02;99696.16;;;5.80;100.00
48352;BME280;34163;49.314;6.752;2023-09-08T13:56:27;99697.97;;;5.78;100.00
48352;BME280;34163;49.314;6.752;2023-09-08T13:58:52;99691.03;;;5.74;100.00
48352;BME280;34163;49.314;6.752;2023-09-08T14:01:20;99685.66;;;5.79;100.00
48352;BME280;34163;49.314;6.752;2023-09-08T14:03:45;99677.91;;;5.74;100.00
48352;BME280;34163;49.314;6.752;2023-09-08T14:06:10;99681.44;;;5.73;100.00
48352;BME280;34163;49.314;6.752;2023-09-08T14:08:35;99685.94;;;5.70;100.00
48352;BME280;34163;49.314;6.752;2023-09-08T14:11:01;99686.75;;;5.72;100.00
48352;BME280;34163;49.314;6.752;2023-09-08T14:13:26;99683.34;;;5.68;100.00
48352;BME280;34163;49.314;6.752;2023-09-08T14:15:51;99686.53;;;5.81;100.00
48352;BME280;34163;49.314;6.752;2023-09-08T14:18:16;99680.53;;;5.74;100.00
48352;BME280;34163;49.314;6.752;2023-09-08T14:20:42;99683.03;;;5.79;100.00
48352;BME280;34163;49.314;6.752;2023-09-08T14:23:08;99674.47;;;5.71;100.00
48352;BME280;34163;49.314;6.752;2023-09-08T14:25:34;99679.59;;;5.77;100.00
48352;BME280;34163;49.314;6.752;2023-09-08T14:27:59;99670.88;;;5.75;100.00
48352;BME280;34163;49.314;6.752;2023-09-08T14:30:27;99682.25;;;5.75;100.00
48352;BME280;34163;49.314;6.752;2023-09-08T14:32:53;99682.91;;;5.85;100.00
48352;BME280;34163;49.314;6.752;2023-09-08T14:35:18;99675.84;;;5.87;100.00
48352;BME280;34163;49.314;6.752;2023-09-08T14:37:43;99680.34;;;5.82;100.00
48352;BME280;34163;49.314;6.752;2023-09-08T14:40:08;99672.28;;;5.88;100.00
48352;BME280;34163;49.314;6.752;2023-09-08T14:42:34;99669.91;;;5.79;100.00
48352;BME280;34163;49.314;6.752;2023-09-08T14:44:59;99673.59;;;5.72;100.00
48352;BME280;34163;49.314;6.752;2023-09-08T14:47:24;99671.94;;;5.68;100.00
48352;BME280;34163;49.314;6.752;2023-09-08T14:49:50;99672.59;;;5.76;100.00
48352;BME280;34163;49.314;6.752;2023-09-08T14:52:15;99668.16;;;5.79;100.00
48352;BME280;34163;49.314;6.752;2023-09-08T14:54:41;99669.16;;;5.74;100.00
48352;BME280;34163;49.314;6.752;2023-09-08T14:57:06;99670.66;;;5.84;100.00
48352;BME280;34163;49.314;6.752;2023-09-08T14:59:32;99665.63;;;5.75;100.00
48352;BME280;34163;49.314;6.752;2023-09-08T15:01:57;99669.06;;;5.77;100.00
48352;BME280;34163;49.314;6.752;2023-09-08T15:04:22;99670.00;;;5.74;100.00
48352;BME280;34163;49.314;6.752;2023-09-08T15:06:48;99670.97;;;5.72;100.00
48352;BME280;34163;49.314;6.752;2023-09-08T15:09:16;99663.97;;;5.71;100.00
48352;BME280;34163;49.314;6.752;2023-09-08T15:11:41;99669.31;;;5.68;100.00
48352;BME280;34163;49.314;6.752;2023-09-08T15:14:06;99670.22;;;5.67;100.00
48352;BME280;34163;49.314;6.752;2023-09-08T15:16:32;99664.13;;;5.64;100.00
48352;BME280;34163;49.314;6.752;2023-09-08T15:18:57;99665.03;;;5.63;100.00
48352;BME280;34163;49.314;6.752;2023-09-08T15:21:23;99666.84;;;5.60;100.00
48352;BME280;34163;49.314;6.752;2023-09-08T15:23:52;99672.13;;;5.60;100.00
48352;BME280;34163;49.314;6.752;2023-09-08T15:26:17;99660.72;;;5.61;100.00
48352;BME280;34163;49.314;6.752;2023-09-08T15:28:43;99655.50;;;5.59;100.00
48352;BME280;34163;49.314;6.752;2023-09-08T15:31:08;99662.63;;;5.54;100.00
48352;BME280;34163;49.314;6.752;2023-09-08T15:33:37;99654.53;;;5.63;100.00
48352;BME280;34163;49.314;6.752;2023-09-08T15:36:02;99652.75;;;5.64;100.00
48352;BME280;34163;49.314;6.752;2023-09-08T15:38:27;99664.34;;;5.57;100.00
48352;BME280;34163;49.314;6.752;2023-09-08T15:43:35;99669.47;;;5.60;100.00
48352;BME280;34163;49.314;6.752;2023-09-08T15:46:00;99665.25;;;5.54;100.00
48352;BME280;34163;49.314;6.752;2023-09-08T15:48:26;99661.59;;;5.60;100.00
48352;BME280;34163;49.314;6.752;2023-09-08T15:50:51;99660.59;;;5.66;100.00
48352;BME280;34163;49.314;6.752;2023-09-08T15:53:16;99657.97;;;5.66;100.00
48352;BME280;34163;49.314;6.752;2023-09-08T15:55:41;99653.56;;;5.66;100.00
48352;BME280;34163;49.314;6.752;2023-09-08T15:58:07;99651.75;;;5.70;100.00
48352;BME280;34163;49.314;6.752;2023-09-08T16:00:32;99649.19;;;5.67;100.00
48352;BME280;34163;49.314;6.752;2023-09-08T16:02:57;99651.84;;;5.65;100.00
48352;BME280;34163;49.314;6.752;2023-09-08T16:05:23;99650.09;;;5.66;100.00
48352;BME280;34163;49.314;6.752;2023-09-08T16:07:48;99650.22;;;5.59;100.00
48352;BME280;34163;49.314;6.752;2023-09-08T16:10:13;99647.41;;;5.67;100.00
48352;BME280;34163;49.314;6.752;2023-09-08T16:12:38;99657.44;;;5.51;100.00
48352;BME280;34163;49.314;6.752;2023-09-08T16:15:04;99657.41;;;5.53;100.00
48352;BME280;34163;49.314;6.752;2023-09-08T16:17:29;99654.78;;;5.53;100.00
48352;BME280;34163;49.314;6.752;2023-09-08T16:19:55;99667.13;;;5.49;100.00
48352;BME280;34163;49.314;6.752;2023-09-08T16:22:20;99651.22;;;5.55;100.00
48352;BME280;34163;49.314;6.752;2023-09-08T16:24:46;99645.13;;;5.53;100.00
48352;BME280;34163;49.314;6.752;2023-09-08T16:27:11;99653.31;;;5.77;100.00
48352;BME280;34163;49.314;6.752;2023-09-08T16:29:37;99651.34;;;5.51;100.00
48352;BME280;34163;49.314;6.752;2023-09-08T16:32:04;99646.91;;;5.53;100.00
48352;BME280;34163;49.314;6.752;2023-09-08T16:34:29;99651.25;;;5.54;100.00
48352;BME280;34163;49.314;6.752;2023-09-08T16:36:54;99653.13;;;5.49;100.00
48352;BME280;34163;49.314;6.752;2023-09-08T16:39:20;99645.94;;;5.57;100.00
48352;BME280;34163;49.314;6.752;2023-09-08T16:41:45;99654.06;;;5.46;100.00
48352;BME280;34163;49.314;6.752;2023-09-08T16:44:10;99645.44;;;5.41;100.00
48352;BME280;34163;49.314;6.752;2023-09-08T16:46:35;99648.56;;;5.57;100.00
48352;BME280;34163;49.314;6.752;2023-09-08T16:49:01;99648.59;;;5.55;100.00
48352;BME280;34163;49.314;6.752;2023-09-08T16:51:26;99648.75;;;5.49;100.00
48352;BME280;34163;49.314;6.752;2023-09-08T16:53:51;99654.75;;;5.54;100.00
48352;BME280;34163;49.314;6.752;2023-09-08T16:56:19;99645.81;;;5.60;100.00
48352;BME280;34163;49.314;6.752;2023-09-08T16:58:44;99643.22;;;5.58;100.00
48352;BME280;34163;49.314;6.752;2023-09-08T17:01:12;99647.78;;;5.52;100.00
48352;BME280;34163;49.314;6.752;2023-09-08T17:03:37;99645.16;;;5.52;100.00
48352;BME280;34163;49.314;6.752;2023-09-08T17:06:03;99649.69;;;5.45;100.00
48352;BME280;34163;49.314;6.752;2023-09-08T17:08:28;99645.22;;;5.49;100.00
48352;BME280;34163;49.314;6.752;2023-09-08T17:10:53;99643.22;;;5.58;100.00
48352;BME280;34163;49.314;6.752;2023-09-08T17:13:22;99647.78;;;5.52;100.00
48352;BME280;34163;49.314;6.752;2023-09-08T17:15:50;99646.84;;;5.54;100.00
48352;BME280;34163;49.314;6.752;2023-09-08T17:18:15;99646.00;;;5.54;100.00
48352;BME280;34163;49.314;6.752;2023-09-08T17:20:42;99639.03;;;5.51;100.00
48352;BME280;34163;49.314;6.752;2023-09-08T17:23:15;99646.78;;;5.57;100.00
48352;BME280;34163;49.314;6.752;2023-09-08T17:28:51;99639.72;;;5.59;100.00
48352;BME280;34163;49.314;6.752;2023-09-08T17:31:17;99630.94;;;5.60;100.00
48352;BME280;34163;49.314;6.752;2023-09-08T17:33:45;99643.00;;;5.68;100.00
48352;BME280;34163;49.314;6.752;2023-09-08T17:36:12;99646.63;;;5.63;100.00
48352;BME280;34163;49.314;6.752;2023-09-08T17:38:40;99645.78;;;5.61;100.00
48352;BME280;34163;49.314;6.752;2023-09-08T17:41:07;99639.50;;;5.69;100.00
48352;BME280;34163;49.314;6.752;2023-09-08T17:43:32;99640.81;;;11.73;100.00
48352;BME280;34163;49.314;6.752;2023-09-08T17:45:58;99641.03;;;7.86;100.00
48352;BME280;34163;49.314;6.752;2023-09-08T17:48:38;99637.81;;;6.65;100.00
48352;BME280;34163;49.314;6.752;2023-09-08T17:51:13;99654.44;;;6.35;100.00
48352;BME280;34163;49.314;6.752;2023-09-08T17:53:39;99658.53;;;6.14;100.00
48352;BME280;34163;49.314;6.752;2023-09-08T17:56:04;99657.88;;;6.05;100.00
48352;BME280;34163;49.314;6.752;2023-09-08T17:58:31;99659.88;;;5.93;100.00
48352;BME280;34163;49.314;6.752;2023-09-08T18:00:59;99654.59;;;5.96;100.00
48352;BME280;34163;49.314;6.752;2023-09-08T18:06:15;99651.09;;;5.94;100.00
48352;BME280;34163;49.314;6.752;2023-09-08T18:08:40;99663.41;;;5.94;100.00
48352;BME280;34163;49.314;6.752;2023-09-08T18:11:24;99663.44;;;5.92;100.00
48352;BME280;34163;49.314;6.752;2023-09-08T18:13:59;99665.19;;;5.92;100.00
48352;BME280;34163;49.314;6.752;2023-09-08T18:16:44;99665.03;;;5.99;100.00
48352;BME280;34163;49.314;6.752;2023-09-08T18:19:19;99666.25;;;5.85;100.00
48352;BME280;34163;49.314;6.752;2023-09-08T18:22:01;99671.38;;;5.91;100.00
48352;BME280;34163;49.314;6.752;2023-09-08T18:24:37;99674.16;;;5.85;100.00
48352;BME280;34163;49.314;6.752;2023-09-08T18:27:20;99674.00;;;5.91;100.00
48352;BME280;34163;49.314;6.752;2023-09-08T18:32:41;99680.88;;;5.96;100.00
48352;BME280;34163;49.314;6.752;2023-09-08T18:35:08;99681.78;;;5.95;100.00
48352;BME280;34163;49.314;6.752;2023-09-08T18:37:33;99681.66;;;6.02;100.00
48352;BME280;34163;49.314;6.752;2023-09-08T18:39:59;99682.75;;;5.91;100.00
48352;BME280;34163;49.314;6.752;2023-09-08T18:44:57;99686.94;;;6.00;100.00
48352;BME280;34163;49.314;6.752;2023-09-08T18:47:26;99685.25;;;5.97;100.00
48352;BME280;34163;49.314;6.752;2023-09-08T18:49:54;99680.81;;;5.99;100.00
48352;BME280;34163;49.314;6.752;2023-09-08T18:52:22;99683.50;;;5.96;100.00
48352;BME280;34163;49.314;6.752;2023-09-08T18:54:48;99684.47;;;5.92;100.00
48352;BME280;34163;49.314;6.752;2023-09-08T18:57:16;99684.56;;;5.89;100.00
48352;BME280;34163;49.314;6.752;2023-09-08T18:59:43;99685.56;;;5.83;100.00
48352;BME280;34163;49.314;6.752;2023-09-08T19:02:09;99687.97;;;5.93;100.00
48352;BME280;34163;49.314;6.752;2023-09-08T19:04:36;99689.75;;;5.92;100.00
48352;BME280;34163;49.314;6.752;2023-09-08T19:07:04;99691.44;;;5.93;100.00
48352;BME280;34163;49.314;6.752;2023-09-08T19:09:38;99689.94;;;5.85;100.00
48352;BME280;34163;49.314;6.752;2023-09-08T19:12:09;99703.66;;;5.96;100.00